createdAt,value
2018-06-24T00:00:53.716Z,0
2018-06-24T00:01:53.696Z,0
2018-06-24T00:02:53.444Z,0
2018-06-24T00:03:53.702Z,0
2018-06-24T00:04:53.701Z,0
2018-06-24T00:05:53.721Z,0
2018-06-24T00:06:53.457Z,0
2018-06-24T00:07:53.428Z,0
2018-06-24T00:08:53.473Z,0
2018-06-24T00:09:53.684Z,0
2018-06-24T00:10:53.697Z,0
2018-06-24T00:11:53.446Z,0
2018-06-24T00:12:53.942Z,0
2018-06-24T00:13:54.521Z,0
2018-06-24T00:14:53.425Z,0
2018-06-24T00:15:53.697Z,0
2018-06-24T00:16:53.671Z,0
2018-06-24T00:17:53.935Z,0
2018-06-24T00:18:53.920Z,0
2018-06-24T00:19:53.673Z,0
2018-06-24T00:20:53.925Z,0
2018-06-24T00:21:52.918Z,0
2018-06-24T00:22:53.409Z,0
2018-06-24T00:23:53.708Z,0
2018-06-24T00:24:53.438Z,0
2018-06-24T00:25:53.166Z,0
2018-06-24T00:26:53.418Z,0
2018-06-24T00:27:53.926Z,0
2018-06-24T00:28:53.411Z,0
2018-06-24T00:29:53.427Z,0
2018-06-24T00:30:53.417Z,0
2018-06-24T00:31:53.444Z,0
2018-06-24T00:32:53.673Z,0
2018-06-24T00:33:53.414Z,0
2018-06-24T00:34:53.657Z,0
2018-06-24T00:35:52.997Z,0
2018-06-24T00:36:53.414Z,0
2018-06-24T00:37:53.423Z,0
2018-06-24T00:38:53.435Z,0
2018-06-24T00:39:53.140Z,0
2018-06-24T00:40:53.395Z,0
2018-06-24T00:41:53.662Z,0
2018-06-24T00:42:53.643Z,0
2018-06-24T00:43:53.798Z,0
2018-06-24T00:44:53.631Z,0
2018-06-24T00:45:53.905Z,0
2018-06-24T00:46:53.126Z,0
2018-06-24T00:47:53.637Z,0
2018-06-24T00:48:53.626Z,0
2018-06-24T00:49:53.894Z,0
2018-06-24T00:50:53.633Z,0
2018-06-24T00:51:52.857Z,0
2018-06-24T00:52:53.382Z,0
2018-06-24T00:53:53.619Z,0
2018-06-24T00:54:53.638Z,0
2018-06-24T00:55:53.378Z,0
2018-06-24T00:56:53.880Z,0
2018-06-24T00:57:53.378Z,0
2018-06-24T00:58:53.613Z,0
2018-06-24T00:59:53.385Z,0
2018-06-24T01:00:53.642Z,0
2018-06-24T01:01:53.106Z,0
2018-06-24T01:02:53.887Z,0
2018-06-24T01:03:54.675Z,0
2018-06-24T01:04:53.371Z,0
2018-06-24T01:05:53.639Z,0
2018-06-24T01:06:53.375Z,0
2018-06-24T01:07:53.375Z,0
2018-06-24T01:08:53.654Z,0
2018-06-24T01:09:53.396Z,0
2018-06-24T01:10:53.349Z,0
2018-06-24T01:11:53.905Z,0
2018-06-24T01:12:53.610Z,0
2018-06-24T01:13:54.399Z,0
2018-06-24T01:14:53.385Z,0
2018-06-24T01:15:53.374Z,0
2018-06-24T01:16:53.588Z,0
2018-06-24T01:17:53.619Z,0
2018-06-24T01:18:53.102Z,0
2018-06-24T01:19:53.614Z,0
2018-06-24T01:20:53.848Z,0
2018-06-24T01:21:53.327Z,0
2018-06-24T01:22:53.602Z,0
2018-06-24T01:23:53.337Z,0
2018-06-24T01:24:53.349Z,0
2018-06-24T01:25:53.067Z,0
2018-06-24T01:26:53.079Z,0
2018-06-24T01:27:53.325Z,0
2018-06-24T01:28:53.323Z,0
2018-06-24T01:29:53.319Z,0
2018-06-24T01:30:53.592Z,0
2018-06-24T01:31:53.582Z,0
2018-06-24T01:32:53.062Z,0
2018-06-24T01:33:53.339Z,0
2018-06-24T01:34:54.355Z,0
2018-06-24T01:35:53.065Z,0
2018-06-24T01:36:53.069Z,0
2018-06-24T01:37:53.561Z,0
2018-06-24T01:38:53.317Z,0
2018-06-24T01:39:53.320Z,0
2018-06-24T01:40:53.550Z,0
2018-06-24T01:41:53.305Z,0
2018-06-24T01:42:53.341Z,0
2018-06-24T01:43:53.568Z,0
2018-06-24T01:44:54.104Z,0
2018-06-24T01:45:53.796Z,0
2018-06-24T01:46:53.569Z,0
2018-06-24T01:47:53.297Z,0
2018-06-24T01:48:53.547Z,0
2018-06-24T01:49:53.535Z,0
2018-06-24T01:50:53.811Z,0
2018-06-24T01:51:53.537Z,0
2018-06-24T01:52:53.286Z,0
2018-06-24T01:53:53.274Z,0
2018-06-24T01:54:53.057Z,0
2018-06-24T01:55:53.535Z,0
2018-06-24T01:56:53.018Z,0
2018-06-24T01:57:53.265Z,0
2018-06-24T01:58:53.768Z,0
2018-06-24T01:59:53.266Z,0
2018-06-24T02:00:53.270Z,0
2018-06-24T02:01:53.782Z,0
2018-06-24T02:02:53.285Z,0
2018-06-24T02:03:54.971Z,0
2018-06-24T02:04:53.050Z,0
2018-06-24T02:05:53.518Z,0
2018-06-24T02:06:53.278Z,0
2018-06-24T02:07:53.757Z,0
2018-06-24T02:08:53.533Z,0
2018-06-24T02:09:53.262Z,0
2018-06-24T02:10:53.267Z,0
2018-06-24T02:11:53.259Z,0
2018-06-24T02:12:53.514Z,0
2018-06-24T02:13:53.502Z,0
2018-06-24T02:14:54.045Z,0
2018-06-24T02:15:53.512Z,0
2018-06-24T02:16:53.744Z,0
2018-06-24T02:17:53.510Z,0
2018-06-24T02:18:53.492Z,0
2018-06-24T02:19:53.503Z,0
2018-06-24T02:20:53.230Z,0
2018-06-24T02:21:53.510Z,0
2018-06-24T02:22:53.743Z,0
2018-06-24T02:23:53.228Z,0
2018-06-24T02:24:53.494Z,0
2018-06-24T02:25:53.770Z,0
2018-06-24T02:26:53.233Z,0
2018-06-24T02:27:53.236Z,0
2018-06-24T02:28:53.225Z,0
2018-06-24T02:29:53.239Z,0
2018-06-24T02:30:53.729Z,0
2018-06-24T02:31:53.740Z,0
2018-06-24T02:32:53.731Z,0
2018-06-24T02:33:53.480Z,0
2018-06-24T02:34:53.736Z,0
2018-06-24T02:35:53.736Z,0
2018-06-24T02:36:53.711Z,0
2018-06-24T02:37:53.467Z,0
2018-06-24T02:38:53.208Z,0
2018-06-24T02:39:52.955Z,0
2018-06-24T02:40:53.716Z,0
2018-06-24T02:41:53.476Z,0
2018-06-24T02:42:53.201Z,0
2018-06-24T02:43:53.201Z,0
2018-06-24T02:44:53.236Z,0
2018-06-24T02:45:53.488Z,0
2018-06-24T02:46:53.196Z,0
2018-06-24T02:47:53.476Z,0
2018-06-24T02:48:53.457Z,0
2018-06-24T02:49:53.480Z,0
2018-06-24T02:50:53.202Z,0
2018-06-24T02:51:53.457Z,0
2018-06-24T02:52:53.183Z,0
2018-06-24T02:53:52.928Z,0
2018-06-24T02:54:53.429Z,0
2018-06-24T02:55:53.473Z,0
2018-06-24T02:56:53.704Z,0
2018-06-24T02:57:53.482Z,0
2018-06-24T02:58:53.423Z,0
2018-06-24T02:59:53.178Z,0
2018-06-24T03:00:53.684Z,0
2018-06-24T03:01:53.442Z,0
2018-06-24T03:02:53.687Z,0
2018-06-24T03:03:53.437Z,0
2018-06-24T03:04:53.713Z,0
2018-06-24T03:05:53.159Z,0
2018-06-24T03:06:53.703Z,0
2018-06-24T03:07:53.152Z,0
2018-06-24T03:08:53.202Z,0
2018-06-24T03:09:53.145Z,0
2018-06-24T03:10:53.438Z,0
2018-06-24T03:11:53.149Z,0
2018-06-24T03:12:52.906Z,0
2018-06-24T03:13:53.661Z,0
2018-06-24T03:14:53.135Z,0
2018-06-24T03:15:53.422Z,0
2018-06-24T03:16:53.224Z,0
2018-06-24T03:17:53.424Z,0
2018-06-24T03:18:53.646Z,0
2018-06-24T03:19:53.395Z,0
2018-06-24T03:20:53.407Z,0
2018-06-24T03:21:53.133Z,0
2018-06-24T03:22:53.439Z,5
2018-06-24T03:23:52.872Z,5
2018-06-24T03:24:53.395Z,5
2018-06-24T03:25:53.378Z,5
2018-06-24T03:26:53.379Z,5
2018-06-24T03:27:52.912Z,5
2018-06-24T03:28:53.374Z,5
2018-06-24T03:29:53.373Z,5
2018-06-24T03:30:53.395Z,10
2018-06-24T03:31:53.112Z,10
2018-06-24T03:32:53.113Z,10
2018-06-24T03:33:52.857Z,10
2018-06-24T03:34:53.098Z,10
2018-06-24T03:35:53.658Z,10
2018-06-24T03:36:53.118Z,15
2018-06-24T03:37:53.091Z,15
2018-06-24T03:38:53.365Z,15
2018-06-24T03:39:53.117Z,15
2018-06-24T03:40:53.606Z,20
2018-06-24T03:41:53.614Z,20
2018-06-24T03:42:53.604Z,20
2018-06-24T03:43:53.608Z,25
2018-06-24T03:44:55.210Z,25
2018-06-24T03:45:53.360Z,25
2018-06-24T03:46:52.841Z,25
2018-06-24T03:47:53.142Z,25
2018-06-24T03:48:53.347Z,25
2018-06-24T03:49:53.327Z,30
2018-06-24T03:50:53.352Z,30
2018-06-24T03:51:53.089Z,30
2018-06-24T03:52:53.064Z,35
2018-06-24T03:53:52.818Z,40
2018-06-24T03:54:52.831Z,45
2018-06-24T03:55:53.321Z,45
2018-06-24T03:56:53.072Z,50
2018-06-24T03:57:53.079Z,55
2018-06-24T03:58:53.583Z,65
2018-06-24T03:59:53.567Z,70
2018-06-24T04:00:53.071Z,65
2018-06-24T04:01:53.326Z,65
2018-06-24T04:02:53.061Z,75
2018-06-24T04:03:53.319Z,85
2018-06-24T04:04:53.704Z,95
2018-06-24T04:05:52.816Z,100
2018-06-24T04:06:53.561Z,115
2018-06-24T04:07:52.813Z,105
2018-06-24T04:08:53.572Z,125
2018-06-24T04:09:53.571Z,140
2018-06-24T04:10:53.059Z,150
2018-06-24T04:11:53.314Z,155
2018-06-24T04:12:53.053Z,150
2018-06-24T04:13:53.568Z,150
2018-06-24T04:14:52.564Z,155
2018-06-24T04:15:53.734Z,145
2018-06-24T04:16:53.303Z,145
2018-06-24T04:17:53.300Z,145
2018-06-24T04:18:53.300Z,140
2018-06-24T04:19:53.047Z,140
2018-06-24T04:20:53.301Z,150
2018-06-24T04:21:53.065Z,215
2018-06-24T04:22:53.295Z,205
2018-06-24T04:23:53.316Z,200
2018-06-24T04:24:53.319Z,195
2018-06-24T04:25:53.686Z,185
2018-06-24T04:26:53.343Z,145
2018-06-24T04:27:52.820Z,180
2018-06-24T04:28:53.322Z,140
2018-06-24T04:29:53.066Z,130
2018-06-24T04:30:53.107Z,170
2018-06-24T04:31:53.061Z,190
2018-06-24T04:32:53.061Z,165
2018-06-24T04:33:53.080Z,180
2018-06-24T04:34:53.322Z,125
2018-06-24T04:35:53.323Z,135
2018-06-24T04:36:53.331Z,130
2018-06-24T04:37:53.331Z,130
2018-06-24T04:38:53.063Z,135
2018-06-24T04:39:53.071Z,145
2018-06-24T04:40:53.327Z,140
2018-06-24T04:41:53.336Z,145
2018-06-24T04:42:53.331Z,150
2018-06-24T04:43:53.332Z,210
2018-06-24T04:44:53.328Z,165
2018-06-24T04:45:54.671Z,150
2018-06-24T04:46:53.336Z,150
2018-06-24T04:47:53.602Z,145
2018-06-24T04:48:53.593Z,140
2018-06-24T04:49:53.081Z,140
2018-06-24T04:50:53.084Z,140
2018-06-24T04:51:53.318Z,140
2018-06-24T04:52:53.601Z,140
2018-06-24T04:53:53.598Z,145
2018-06-24T04:54:53.603Z,140
2018-06-24T04:55:53.090Z,140
2018-06-24T04:56:53.089Z,140
2018-06-24T04:57:53.151Z,140
2018-06-24T04:58:53.406Z,135
2018-06-24T04:59:53.090Z,130
2018-06-24T05:00:53.104Z,130
2018-06-24T05:01:53.431Z,125
2018-06-24T05:02:53.348Z,130
2018-06-24T05:03:53.102Z,135
2018-06-24T05:04:53.640Z,135
2018-06-24T05:05:52.839Z,135
2018-06-24T05:06:53.651Z,135
2018-06-24T05:07:53.617Z,135
2018-06-24T05:08:53.110Z,135
2018-06-24T05:09:53.367Z,135
2018-06-24T05:10:53.343Z,140
2018-06-24T05:11:53.610Z,150
2018-06-24T05:12:53.098Z,150
2018-06-24T05:13:53.599Z,150
2018-06-24T05:14:53.629Z,150
2018-06-24T05:15:54.156Z,150
2018-06-24T05:16:53.625Z,155
2018-06-24T05:17:53.617Z,155
2018-06-24T05:18:53.349Z,155
2018-06-24T05:19:53.128Z,155
2018-06-24T05:20:53.133Z,155
2018-06-24T05:21:53.098Z,160
2018-06-24T05:22:53.354Z,165
2018-06-24T05:23:53.376Z,165
2018-06-24T05:24:53.623Z,165
2018-06-24T05:25:53.617Z,165
2018-06-24T05:26:53.610Z,175
2018-06-24T05:27:53.369Z,180
2018-06-24T05:28:53.361Z,175
2018-06-24T05:29:53.376Z,180
2018-06-24T05:30:53.353Z,180
2018-06-24T05:31:53.366Z,190
2018-06-24T05:32:53.415Z,195
2018-06-24T05:33:53.414Z,195
2018-06-24T05:34:53.622Z,200
2018-06-24T05:35:53.360Z,200
2018-06-24T05:36:53.359Z,205
2018-06-24T05:37:53.904Z,210
2018-06-24T05:38:53.672Z,200
2018-06-24T05:39:52.909Z,200
2018-06-24T05:40:53.620Z,205
2018-06-24T05:41:53.155Z,200
2018-06-24T05:42:53.384Z,200
2018-06-24T05:43:53.630Z,205
2018-06-24T05:44:53.377Z,205
2018-06-24T05:45:53.634Z,210
2018-06-24T05:46:53.382Z,215
2018-06-24T05:47:53.635Z,220
2018-06-24T05:48:53.727Z,225
2018-06-24T05:49:53.380Z,225
2018-06-24T05:50:53.388Z,235
2018-06-24T05:51:53.385Z,240
2018-06-24T05:52:53.670Z,240
2018-06-24T05:53:53.669Z,240
2018-06-24T05:54:53.153Z,240
2018-06-24T05:55:53.418Z,240
2018-06-24T05:56:53.147Z,250
2018-06-24T05:57:53.657Z,270
2018-06-24T05:58:53.136Z,260
2018-06-24T05:59:53.389Z,275
2018-06-24T06:00:53.145Z,265
2018-06-24T06:01:53.683Z,270
2018-06-24T06:02:53.645Z,260
2018-06-24T06:03:53.410Z,255
2018-06-24T06:04:53.419Z,280
2018-06-24T06:05:53.179Z,265
2018-06-24T06:06:53.427Z,255
2018-06-24T06:07:52.921Z,240
2018-06-24T06:08:53.662Z,245
2018-06-24T06:09:53.160Z,250
2018-06-24T06:10:53.682Z,270
2018-06-24T06:11:53.473Z,275
2018-06-24T06:12:53.683Z,355
2018-06-24T06:13:53.423Z,365
2018-06-24T06:23:51.371Z,430
2018-06-24T06:24:52.130Z,420
2018-06-24T06:25:51.855Z,420
2018-06-24T06:26:51.700Z,405
2018-06-24T06:27:51.604Z,385
2018-06-24T06:28:51.602Z,415
2018-06-24T06:29:51.633Z,415
2018-06-24T06:30:52.139Z,405
2018-06-24T06:31:51.621Z,425
2018-06-24T06:32:51.873Z,420
2018-06-24T06:33:51.879Z,410
2018-06-24T06:34:51.385Z,400
2018-06-24T06:35:51.894Z,380
2018-06-24T06:36:52.168Z,380
2018-06-24T06:37:51.900Z,390
2018-06-24T06:38:51.902Z,400
2018-06-24T06:39:51.932Z,400
2018-06-24T06:40:52.187Z,410
2018-06-24T06:41:51.666Z,380
2018-06-24T06:42:51.668Z,380
2018-06-24T06:43:51.951Z,385
2018-06-24T06:44:51.811Z,400
2018-06-24T06:45:52.195Z,400
2018-06-24T06:46:51.202Z,390
2018-06-24T06:47:51.991Z,380
2018-06-24T06:48:51.972Z,385
2018-06-24T06:49:52.239Z,370
2018-06-24T06:50:51.985Z,350
2018-06-24T06:51:51.707Z,380
2018-06-24T06:52:51.714Z,400
2018-06-24T06:53:51.996Z,410
2018-06-24T06:54:51.724Z,420
2018-06-24T06:55:52.058Z,390
2018-06-24T06:56:51.994Z,355
2018-06-24T06:57:52.254Z,375
2018-06-24T06:58:51.771Z,385
2018-06-24T06:59:52.291Z,415
2018-06-24T07:00:51.781Z,390
2018-06-24T07:01:52.054Z,355
2018-06-24T07:02:52.049Z,355
2018-06-24T07:03:52.045Z,365
2018-06-24T07:04:52.052Z,375
2018-06-24T07:05:52.336Z,380
2018-06-24T07:06:51.550Z,345
2018-06-24T07:07:52.067Z,315
2018-06-24T07:08:52.345Z,305
2018-06-24T07:09:51.822Z,300
2018-06-24T07:10:51.564Z,310
2018-06-24T07:11:51.828Z,305
2018-06-24T07:12:52.096Z,285
2018-06-24T07:13:51.320Z,290
2018-06-24T07:14:51.836Z,280
2018-06-24T07:15:52.339Z,295
2018-06-24T07:16:51.863Z,310
2018-06-24T07:17:52.099Z,310
2018-06-24T07:18:51.854Z,305
2018-06-24T07:19:52.101Z,310
2018-06-24T07:20:52.374Z,305
2018-06-24T07:21:52.122Z,275
2018-06-24T07:22:51.880Z,280
2018-06-24T07:23:53.434Z,265
2018-06-24T07:24:51.381Z,270
2018-06-24T07:25:51.888Z,270
2018-06-24T07:26:52.150Z,290
2018-06-24T07:27:52.891Z,295
2018-06-24T07:28:51.900Z,290
2018-06-24T07:29:51.900Z,285
2018-06-24T07:30:51.889Z,295
2018-06-24T07:31:51.898Z,280
2018-06-24T07:32:52.407Z,275
2018-06-24T07:33:53.164Z,275
2018-06-24T07:34:51.915Z,270
2018-06-24T07:35:51.665Z,270
2018-06-24T07:36:52.419Z,275
2018-06-24T07:37:51.961Z,275
2018-06-24T07:38:51.707Z,275
2018-06-24T07:39:52.179Z,280
2018-06-24T07:40:52.209Z,300
2018-06-24T07:41:52.185Z,310
2018-06-24T07:42:51.942Z,345
2018-06-24T07:43:52.447Z,335
2018-06-24T07:44:51.695Z,310
2018-06-24T07:45:51.973Z,295
2018-06-24T07:46:52.223Z,280
2018-06-24T07:47:51.965Z,275
2018-06-24T07:48:51.703Z,285
2018-06-24T07:49:52.514Z,280
2018-06-24T07:50:52.000Z,285
2018-06-24T07:51:52.238Z,280
2018-06-24T07:52:52.222Z,280
2018-06-24T07:53:53.548Z,285
2018-06-24T07:54:52.001Z,290
2018-06-24T07:55:52.492Z,290
2018-06-24T07:56:52.266Z,295
2018-06-24T07:57:52.497Z,300
2018-06-24T07:58:52.260Z,320
2018-06-24T07:59:51.499Z,330
2018-06-24T08:00:52.015Z,345
2018-06-24T08:01:52.010Z,350
2018-06-24T08:02:52.258Z,345
2018-06-24T08:03:52.015Z,340
2018-06-24T08:04:52.556Z,335
2018-06-24T08:05:52.281Z,335
2018-06-24T08:06:52.042Z,365
2018-06-24T08:07:52.039Z,370
2018-06-24T08:08:52.033Z,380
2018-06-24T08:09:52.288Z,375
2018-06-24T08:10:52.052Z,395
2018-06-24T08:11:52.290Z,395
2018-06-24T08:12:51.785Z,370
2018-06-24T08:13:52.097Z,355
2018-06-24T08:14:52.071Z,365
2018-06-24T08:15:52.062Z,355
2018-06-24T08:16:52.319Z,350
2018-06-24T08:17:52.078Z,350
2018-06-24T08:18:52.322Z,350
2018-06-24T08:19:52.330Z,335
2018-06-24T08:20:52.084Z,330
2018-06-24T08:21:52.091Z,340
2018-06-24T08:22:51.984Z,345
2018-06-24T08:23:52.087Z,370
2018-06-24T08:24:51.836Z,350
2018-06-24T08:25:52.341Z,380
2018-06-24T08:26:52.621Z,405
2018-06-24T08:27:52.648Z,365
2018-06-24T08:28:52.626Z,335
2018-06-24T08:29:51.867Z,355
2018-06-24T08:30:52.366Z,370
2018-06-24T08:31:52.741Z,350
2018-06-24T08:32:52.381Z,365
2018-06-24T08:33:51.904Z,365
2018-06-24T08:34:52.622Z,435
2018-06-24T08:35:52.653Z,395
2018-06-24T08:36:52.412Z,430
2018-06-24T08:37:52.413Z,455
2018-06-24T08:38:51.894Z,375
2018-06-24T08:39:52.404Z,390
2018-06-24T08:40:52.438Z,365
2018-06-24T08:41:52.654Z,385
2018-06-24T08:42:52.663Z,365
2018-06-24T08:43:52.185Z,365
2018-06-24T08:44:52.987Z,355
2018-06-24T08:45:52.165Z,365
2018-06-24T08:46:52.689Z,365
2018-06-24T08:47:51.926Z,350
2018-06-24T08:48:52.189Z,365
2018-06-24T08:49:52.438Z,370
2018-06-24T08:50:52.709Z,335
2018-06-24T08:51:52.198Z,295
2018-06-24T08:52:52.472Z,335
2018-06-24T08:53:52.475Z,350
2018-06-24T08:54:52.724Z,330
2018-06-24T08:55:52.477Z,345
2018-06-24T08:56:52.499Z,350
2018-06-24T08:57:52.751Z,365
2018-06-24T08:58:52.494Z,355
2018-06-24T08:59:52.241Z,360
2018-06-24T09:00:52.665Z,370
2018-06-24T09:01:52.269Z,365
2018-06-24T09:02:52.775Z,420
2018-06-24T09:03:51.800Z,420
2018-06-24T09:04:52.508Z,335
2018-06-24T09:05:52.309Z,395
2018-06-24T09:06:52.043Z,410
2018-06-24T09:07:52.510Z,415
2018-06-24T09:08:52.525Z,420
2018-06-24T09:09:52.795Z,430
2018-06-24T09:10:52.313Z,390
2018-06-24T09:11:52.810Z,400
2018-06-24T09:12:52.043Z,425
2018-06-24T09:13:52.311Z,425
2018-06-24T09:14:52.396Z,415
2018-06-24T09:15:52.491Z,425
2018-06-24T09:16:52.568Z,410
2018-06-24T09:17:52.562Z,430
2018-06-24T09:18:52.322Z,410
2018-06-24T09:19:52.583Z,360
2018-06-24T09:20:52.576Z,425
2018-06-24T09:21:52.343Z,440
2018-06-24T09:22:52.336Z,430
2018-06-24T09:23:52.593Z,440
2018-06-24T09:24:52.632Z,435
2018-06-24T09:25:52.902Z,460
2018-06-24T09:26:52.857Z,470
2018-06-24T09:27:52.967Z,500
2018-06-24T09:28:52.362Z,455
2018-06-24T09:29:52.620Z,465
2018-06-24T09:30:52.870Z,460
2018-06-24T09:31:52.386Z,440
2018-06-24T09:32:52.133Z,460
2018-06-24T09:33:52.641Z,475
2018-06-24T09:34:52.960Z,440
2018-06-24T09:35:52.662Z,450
2018-06-24T09:36:52.396Z,430
2018-06-24T09:37:52.656Z,420
2018-06-24T09:38:52.659Z,415
2018-06-24T09:39:52.406Z,410
2018-06-24T09:40:52.704Z,420
2018-06-24T09:41:52.918Z,430
2018-06-24T09:42:52.426Z,445
2018-06-24T09:43:51.918Z,450
2018-06-24T09:44:52.441Z,455
2018-06-24T09:45:52.680Z,470
2018-06-24T09:46:52.445Z,490
2018-06-24T09:47:52.961Z,505
2018-06-24T09:48:52.691Z,510
2018-06-24T09:49:52.191Z,495
2018-06-24T09:50:52.703Z,490
2018-06-24T09:51:52.463Z,510
2018-06-24T09:52:52.343Z,510
2018-06-24T09:53:52.994Z,490
2018-06-24T09:54:52.740Z,490
2018-06-24T09:55:52.774Z,495
2018-06-24T09:56:52.490Z,515
2018-06-24T09:57:52.507Z,485
2018-06-24T09:58:52.496Z,480
2018-06-24T09:59:52.756Z,465
2018-06-24T10:00:53.049Z,460
2018-06-24T10:01:52.549Z,470
2018-06-24T10:02:52.747Z,465
2018-06-24T10:03:52.782Z,465
2018-06-24T10:04:52.771Z,480
2018-06-24T10:05:52.504Z,485
2018-06-24T10:06:53.030Z,480
2018-06-24T10:07:52.533Z,465
2018-06-24T10:08:52.559Z,465
2018-06-24T10:09:53.573Z,450
2018-06-24T10:10:52.029Z,445
2018-06-24T10:11:52.281Z,440
2018-06-24T10:12:52.805Z,435
2018-06-24T10:13:52.943Z,430
2018-06-24T10:14:52.839Z,430
2018-06-24T10:15:52.296Z,420
2018-06-24T10:16:52.568Z,415
2018-06-24T10:17:52.310Z,415
2018-06-24T10:18:53.078Z,420
2018-06-24T10:19:52.833Z,420
2018-06-24T10:20:52.594Z,420
2018-06-24T10:21:52.580Z,415
2018-06-24T10:53:09.675Z,345
2018-06-24T10:54:09.788Z,345
2018-06-24T10:55:09.685Z,350
2018-06-24T10:56:09.502Z,355
2018-06-24T10:57:09.769Z,370
2018-06-24T10:58:09.752Z,385
2018-06-24T10:59:09.761Z,410
2018-06-24T11:00:09.333Z,430
2018-06-24T11:01:09.976Z,455
2018-06-24T11:02:09.722Z,470
2018-06-24T11:03:09.510Z,485
2018-06-24T11:04:09.769Z,495
2018-06-24T11:05:09.501Z,515
2018-06-24T11:06:10.011Z,500
2018-06-24T11:07:09.508Z,500
2018-06-24T11:08:09.488Z,510
2018-06-24T11:09:09.774Z,485
2018-06-24T11:10:09.399Z,480
2018-06-24T11:11:09.258Z,440
2018-06-24T11:12:09.536Z,430
2018-06-24T11:13:09.532Z,415
2018-06-24T11:14:09.773Z,400
2018-06-24T11:15:09.515Z,390
2018-06-24T11:16:09.859Z,380
2018-06-24T11:17:09.796Z,370
2018-06-24T11:18:09.552Z,360
2018-06-24T11:19:09.534Z,360
2018-06-24T11:20:09.360Z,360
2018-06-24T11:21:09.596Z,365
2018-06-24T11:22:09.044Z,360
2018-06-24T11:23:09.567Z,365
2018-06-24T11:24:09.580Z,360
2018-06-24T11:25:09.846Z,355
2018-06-24T11:26:09.647Z,355
2018-06-24T11:27:09.712Z,350
2018-06-24T11:28:09.349Z,355
2018-06-24T11:29:09.845Z,345
2018-06-24T11:30:09.591Z,350
2018-06-24T11:31:10.505Z,350
2018-06-24T11:32:09.745Z,350
2018-06-24T11:33:09.887Z,360
2018-06-24T11:34:09.366Z,360
2018-06-24T11:35:09.771Z,360
2018-06-24T11:36:09.374Z,360
2018-06-24T11:37:10.138Z,360
2018-06-24T11:38:09.609Z,360
2018-06-24T11:39:09.954Z,360
2018-06-24T11:40:10.046Z,360
2018-06-24T11:41:09.884Z,360
2018-06-24T11:42:09.656Z,355
2018-06-24T11:43:09.661Z,360
2018-06-24T11:44:09.396Z,350
2018-06-24T11:45:09.801Z,345
2018-06-24T11:46:09.894Z,345
2018-06-24T11:47:09.633Z,340
2018-06-24T11:48:09.424Z,340
2018-06-24T11:49:10.197Z,340
2018-06-24T11:50:09.634Z,335
2018-06-24T11:51:09.675Z,335
2018-06-24T11:52:10.151Z,340
2018-06-24T11:53:12.398Z,340
2018-06-24T11:54:10.166Z,345
2018-06-24T11:55:10.261Z,350
2018-06-24T11:56:10.011Z,355
2018-06-24T11:57:10.120Z,365
2018-06-24T11:58:10.187Z,370
2018-06-24T11:59:09.961Z,375
2018-06-24T12:00:09.746Z,385
2018-06-24T12:01:09.703Z,390
2018-06-24T12:02:10.096Z,395
2018-06-24T12:03:10.223Z,400
2018-06-24T12:04:09.822Z,400
2018-06-24T12:05:10.380Z,410
2018-06-24T12:06:09.966Z,415
2018-06-24T12:07:09.960Z,420
2018-06-24T12:08:10.200Z,420
2018-06-24T12:09:09.738Z,425
2018-06-24T12:10:09.863Z,425
2018-06-24T12:11:09.509Z,420
2018-06-24T12:12:09.757Z,420
2018-06-24T12:13:09.724Z,420
2018-06-24T12:14:09.745Z,430
2018-06-24T12:15:09.879Z,435
2018-06-24T12:16:10.004Z,445
2018-06-24T12:17:10.245Z,455
2018-06-24T12:18:09.939Z,460
2018-06-24T12:19:09.782Z,465
2018-06-24T12:20:09.481Z,465
2018-06-24T12:21:09.523Z,460
2018-06-24T12:22:10.267Z,455
2018-06-24T12:23:09.772Z,455
2018-06-24T12:24:09.555Z,455
2018-06-24T12:25:09.687Z,475
2018-06-24T12:26:09.874Z,465
2018-06-24T12:27:10.288Z,440
2018-06-24T12:28:10.027Z,435
2018-06-24T12:29:10.029Z,430
2018-06-24T12:30:10.215Z,425
2018-06-24T12:31:09.788Z,430
2018-06-24T12:32:10.059Z,440
2018-06-24T12:33:09.528Z,445
2018-06-24T12:34:10.044Z,445
2018-06-24T12:35:09.869Z,450
2018-06-24T12:36:09.845Z,455
2018-06-24T12:37:10.054Z,450
2018-06-24T12:38:09.580Z,445
2018-06-24T12:39:09.295Z,440
2018-06-24T12:40:09.957Z,435
2018-06-24T12:41:09.412Z,440
2018-06-24T12:42:09.661Z,430
2018-06-24T12:43:10.465Z,435
2018-06-24T12:44:10.081Z,435
2018-06-24T12:45:09.634Z,440
2018-06-24T12:46:10.078Z,445
2018-06-24T12:47:09.845Z,450
2018-06-24T12:48:09.871Z,440
2018-06-24T12:49:09.591Z,435
2018-06-24T12:50:09.749Z,430
2018-06-24T12:51:10.094Z,430
2018-06-24T12:52:09.856Z,435
2018-06-24T12:53:11.163Z,440
2018-06-24T12:54:09.660Z,435
2018-06-24T12:55:10.065Z,435
2018-06-24T12:56:09.883Z,420
2018-06-24T12:57:10.143Z,410
2018-06-24T12:58:09.672Z,400
2018-06-24T12:59:11.771Z,385
2018-06-24T13:00:12.722Z,375
2018-06-24T13:01:09.918Z,360
2018-06-24T13:02:09.925Z,355
2018-06-24T13:03:09.891Z,345
2018-06-24T13:04:09.408Z,345
2018-06-24T13:05:10.032Z,335
2018-06-24T13:06:09.950Z,335
2018-06-24T13:07:10.263Z,330
2018-06-24T13:08:10.216Z,330
2018-06-24T13:09:09.935Z,335
2018-06-24T13:10:10.434Z,335
2018-06-24T13:11:09.932Z,335
2018-06-24T13:12:09.722Z,335
2018-06-24T13:13:09.935Z,335
2018-06-24T13:14:10.107Z,335
2018-06-24T13:15:10.637Z,345
2018-06-24T13:16:09.965Z,350
2018-06-24T13:17:10.195Z,360
2018-06-24T13:18:09.969Z,360
2018-06-24T13:19:10.205Z,345
2018-06-24T13:20:10.145Z,330
2018-06-24T13:21:10.330Z,325
2018-06-24T13:22:10.483Z,325
2018-06-24T13:23:11.065Z,330
2018-06-24T13:24:10.246Z,335
2018-06-24T13:25:10.447Z,350
2018-06-24T13:26:10.062Z,335
2018-06-24T13:27:09.740Z,340
2018-06-24T13:28:10.258Z,365
2018-06-24T13:29:10.231Z,365
2018-06-24T13:30:10.269Z,360
2018-06-24T13:31:09.773Z,365
2018-06-24T13:32:10.675Z,350
2018-06-24T13:33:09.999Z,330
2018-06-24T13:34:10.028Z,330
2018-06-24T13:35:10.246Z,305
2018-06-24T13:36:10.013Z,295
2018-06-24T13:37:09.759Z,300
2018-06-24T13:38:10.024Z,300
2018-06-24T13:39:10.020Z,300
2018-06-24T13:40:09.874Z,290
2018-06-24T13:41:10.374Z,285
2018-06-24T13:42:09.716Z,300
2018-06-24T13:43:10.028Z,310
2018-06-24T13:44:10.034Z,300
2018-06-24T13:45:10.388Z,300
2018-06-24T13:46:10.042Z,300
2018-06-24T13:47:10.308Z,300
2018-06-24T13:48:10.371Z,310
2018-06-24T13:49:09.802Z,305
2018-06-24T13:50:10.284Z,320
2018-06-24T13:51:09.803Z,320
2018-06-24T13:52:10.054Z,325
2018-06-24T13:53:11.103Z,330
2018-06-24T13:54:09.841Z,275
2018-06-24T13:55:10.487Z,325
2018-06-24T13:56:10.322Z,325
2018-06-24T13:57:10.093Z,330
2018-06-24T13:58:10.627Z,335
2018-06-24T13:59:10.340Z,335
2018-06-24T14:00:10.810Z,340
2018-06-24T14:01:10.104Z,345
2018-06-24T14:02:10.377Z,350
2018-06-24T14:03:10.605Z,360
2018-06-24T14:04:10.648Z,355
2018-06-24T14:05:09.864Z,340
2018-06-24T14:06:10.853Z,335
2018-06-24T14:07:10.627Z,300
2018-06-24T14:08:10.350Z,330
2018-06-24T14:09:10.360Z,300
2018-06-24T14:10:10.666Z,330
2018-06-24T14:11:10.438Z,335
2018-06-24T14:12:10.133Z,340
2018-06-24T14:13:10.122Z,330
2018-06-24T14:14:11.185Z,305
2018-06-24T14:15:09.920Z,300
2018-06-24T14:16:10.149Z,320
2018-06-24T14:17:10.651Z,315
2018-06-24T14:18:10.250Z,315
2018-06-24T14:19:10.396Z,325
2018-06-24T14:20:09.909Z,305
2018-06-24T14:21:10.173Z,310
2018-06-24T14:22:10.402Z,315
2018-06-24T14:23:10.546Z,310
2018-06-24T14:24:09.925Z,330
2018-06-24T14:25:10.743Z,300
2018-06-24T14:26:10.708Z,290
2018-06-24T14:27:10.714Z,290
2018-06-24T14:28:11.031Z,280
2018-06-24T14:29:10.261Z,275
2018-06-24T14:30:10.485Z,275
2018-06-24T14:31:10.196Z,280
2018-06-24T14:32:10.716Z,285
2018-06-24T14:33:10.447Z,285
2018-06-24T14:34:10.198Z,280
2018-06-24T14:35:10.557Z,285
2018-06-24T14:36:10.273Z,285
2018-06-24T14:37:10.483Z,270
2018-06-24T14:38:10.433Z,265
2018-06-24T14:39:10.290Z,275
2018-06-24T14:40:10.880Z,290
2018-06-24T14:41:10.742Z,295